METAR Data
IDs: Format: Raw Decoded Include TAF

Data at: 1534 UTC 24 Aug 2019

PAUT 241515Z AUTO 32008KT 10SM OVC070 11/09 A2988 RMK AO2 T01070094
PAUT 241455Z AUTO 31011KT 10SM OVC070 11/09 A2988 RMK AO2 T01070093
PAUT 241435Z AUTO 32010KT 10SM OVC070 10/10 A2988 RMK AO2 T01010096
PAUT 241415Z AUTO 33008KT 10SM SCT011 OVC070 11/10 A2988 RMK AO2 T01050096
PAUT 241355Z AUTO 32009G15KT 10SM SCT009 SCT055 OVC080 10/10 A2987 RMK AO2 T01020097
PAUT 241335Z AUTO 32010G15KT 10SM SCT055 OVC080 10/10 A2987 RMK AO2 T01010097
PAUT 241315Z AUTO 32010KT 10SM OVC080 10/10 A2987 RMK AO2 T01000096
PAUT 241255Z AUTO 31011KT 10SM OVC080 10/10 A2987 RMK AO2 T01010095
PAUT 241235Z AUTO 32011G16KT 10SM SCT060 OVC080 11/10 A2986 RMK AO2 T01050096
PAUT 241215Z AUTO 31011KT 10SM OVC080 10/10 A2986 RMK AO2 T01030097
PAUT 241155Z AUTO 32009KT 10SM OVC080 11/10 A2986 RMK AO2 70001 T01050098 10110 20103
PAUT 241135Z AUTO 32008KT 10SM OVC080 11/10 A2986 RMK AO2 T01050098
PAUT 241115Z AUTO 32012G15KT 10SM OVC080 11/10 A2986 RMK AO2 T01070100
PAUT 241055Z AUTO 32012KT 10SM SCT060 OVC080 11/10 A2986 RMK AO2 T01080099
PAUT 241035Z AUTO 32012KT 10SM OVC060 11/10 A2986 RMK AO2 T01070097
PAUT 241015Z AUTO 30011KT 10SM BKN060 OVC080 11/10 A2986 RMK AO2 T01060095
PAUT 240955Z AUTO 32011KT 10SM SCT039 BKN060 OVC080 11/10 A2986 RMK AO2 T01060095
PAUT 240935Z AUTO 31011KT 10SM SCT060 OVC080 11/09 A2985 RMK AO2 T01050094
PAUT 240915Z AUTO 31011KT 10SM SCT060 BKN080 11/10 A2985 RMK AO2 T01050095
PAUT 240855Z AUTO 31011KT 10SM OVC080 10/09 A2985 RMK AO2 T01030094 401510100
PAUT 240835Z AUTO 31012G15KT 10SM BKN070 OVC080 11/10 A2985 RMK AO2 T01060095
PAUT 240815Z AUTO 32010KT 10SM OVC080 11/10 A2985 RMK AO2 T01050096
PAUT 240755Z AUTO 32010KT 10SM BKN050 OVC080 11/10 A2985 RMK AO2 T01050095
PAUT 240735Z AUTO 32014KT 10SM OVC050 11/10 A2984 RMK AO2 T01070095
PAUT 240715Z AUTO 31012G17KT 10SM OVC050 11/10 A2984 RMK AO2 T01080095
PAUT 240655Z AUTO 31010G15KT 10SM SCT010 OVC050 11/10 A2984 RMK AO2 T01080097
PAUT 240635Z AUTO 30012KT 10SM SCT010 SCT022 OVC047 11/10 A2984 RMK AO2 T01080100
PAUT 240615Z AUTO 31011G15KT 10SM SCT022 SCT040 OVC045 11/10 A2983 RMK AO2 T01080100
PAUT 240555Z AUTO 31012G15KT 10SM SCT008 SCT022 OVC037 11/10 A2982 RMK AO2 T01090100 10151 20106
PAUT 240535Z AUTO 30013G19KT 10SM SCT008 SCT020 OVC034 11/10 A2982 RMK AO2 T01070100
PAUT 240515Z AUTO 32013G18KT 10SM SCT010 BKN023 OVC029 11/10 A2982 RMK AO2 T01080102
PAUT 240455Z AUTO 31010KT 10SM SCT010 OVC020 11/10 A2982 RMK AO2 T01060101
PAUT 240435Z AUTO 28012KT 10SM SCT010 OVC018 11/10 A2982 RMK AO2 T01100103
PAUT 240415Z AUTO 28012KT 10SM OVC014 11/10 A2982 RMK AO2 T01110102
PAUT 240355Z AUTO 29009KT 10SM OVC014 12/10 A2981 RMK AO2 T01160101
PAUT 240335Z AUTO 29012KT 10SM OVC014 13/10 A2981 RMK AO2 T01270103
PAUT 240315Z AUTO 33005KT 10SM BKN014 OVC027 13/11 A2980 RMK AO2 T01340105
PAUT 240255Z AUTO 32006G17KT 10SM SCT014 OVC027 14/11 A2980 RMK AO2 T01390109
PAUT 240235Z AUTO 01012G18KT 10SM BKN025 BKN037 OVC070 14/11 A2979 RMK AO2 T01410112
PAUT 240215Z AUTO 35008G19KT 10SM SCT015 BKN023 BKN070 14/11 A2981 RMK AO2 T01420111
PAUT 240155Z AUTO 32010G17KT 10SM SCT015 BKN023 BKN033 15/12 A2980 RMK AO2 T01470116
PAUT 240135Z AUTO 33009KT 300V010 10SM SCT015 BKN028 BKN033 14/11 A2981 RMK AO2 T01420114
PAUT 240115Z AUTO 31006G15KT 10SM BKN015 BKN020 OVC026 13/11 A2981 RMK AO2 T01290111
PAUT 240055Z AUTO 31009G16KT 280V360 10SM SCT019 BKN024 15/12 A2981 RMK AO2 T01510120
PAUT 240035Z AUTO 00000KT 10SM OVC017 14/12 A2979 RMK AO2 T01350115
PAUT 240015Z AUTO 28011G16KT 10SM OVC017 13/11 A2979 RMK AO2 T01250111
PAUT 232355Z AUTO 27011G16KT 10SM BKN017 13/12 A2979 RMK AO2 60001 T01260116 10128 20107
PAUT 232335Z AUTO 27011KT 10SM SCT019 SCT060 12/12 A2979 RMK AO2 T01240122
PAUT 232315Z AUTO 28010G16KT 10SM SCT055 12/12 A2980 RMK AO2 T01220121
PAUT 232255Z AUTO 28010G16KT 270V340 10SM SCT055 13/13 A2979 RMK AO2 T01270125
PAUT 232235Z AUTO 29009G16KT 10SM SCT001 SCT007 BKN055 12/12 A2979 RMK AO2 T01230123
PAUT 232215Z AUTO 28009KT M1/4SM FG OVC001 12/12 A2978 RMK AO2 T01180118
PAUT 232155Z AUTO 31006KT 1/2SM FG OVC001 12/12 A2978 RMK AO2 T01210121
PAUT 232135Z AUTO 32007KT 1/2SM FG OVC001 12/12 A2980 RMK AO2 T01200120
PAUT 232115Z AUTO 31005KT 1 3/4SM BR OVC001 12/12 A2979 RMK AO2 T01200120
PAUT 232055Z AUTO 32005KT 4SM BR BKN001 OVC055 12/12 A2979 RMK AO2 60001 T01180118
PAUT 232035Z AUTO 32005KT 3SM BR BKN001 OVC055 12/12 A2981 RMK AO2 T01170117
PAUT 232015Z AUTO 31005KT 4SM BR BKN001 OVC055 12/12 A2979 RMK AO2 T01160116
PAUT 231955Z AUTO 30005KT 4SM BR SCT001 OVC055 12/12 A2978 RMK AO2 P0001 T01150115
PAUT 231935Z AUTO 32005KT 7SM OVC055 11/11 A2978 RMK AO2 P0001 T01120112
PAUT 231915Z AUTO 32004KT 10SM OVC055 11/11 A2978 RMK AO2 P0001 T01110111
PAUT 231855Z AUTO 30003KT 5SM BR OVC055 11/11 A2978 RMK AO2 T01100110
PAUT 231835Z AUTO 32003KT 7SM SCT002 OVC055 11/11 A2978 RMK AO2 T01090109
PAUT 231815Z AUTO 28003KT 1 1/2SM BR SCT002 OVC055 11/11 A2978 RMK AO2 T01110111
PAUT 231755Z AUTO 30004KT M1/4SM FG BKN002 OVC055 11/11 A2978 RMK AO2 T01100110 10111 20100
PAUT 231735Z AUTO 29003KT 3SM BR BKN002 BKN045 OVC055 11/11 A2978 RMK AO2 T01060106
PAUT 231715Z AUTO 30003KT 1 1/4SM BR BKN002 OVC045 11/11 A2978 RMK AO2 T01070107
PAUT 231655Z AUTO 32005KT 1SM BR BKN002 OVC045 11/11 A2977 RMK AO2 VIS 1/2V5 T01070107
PAUT 231635Z AUTO 33005KT M1/4SM FG OVC002 11/11 A2977 RMK AO2 T01070107
PAUT 231615Z AUTO 32004KT M1/4SM FG OVC002 11/11 A2978 RMK AO2 T01060106
PAUT 231555Z AUTO 33003KT 1/4SM FG OVC002 11/11 A2978 RMK AO2 T01050105
PAUT 231535Z AUTO 33006KT 1/2SM FG OVC002 11/11 A2977 RMK AO2 T01080108
PAUT 231515Z AUTO 33006KT 1/4SM FG OVC002 11/11 A2977 RMK AO2 T01070107
PAUT 231455Z AUTO 33006KT 3SM BR OVC002 11/11 A2977 RMK AO2 T01070107
PAUT 231435Z AUTO 32005KT 1/4SM FG OVC002 11/11 A2977 RMK AO2 T01070107
PAUT 231415Z AUTO 33005KT 1/4SM FG OVC002 11/11 A2977 RMK AO2 T01050105
PAUT 231355Z AUTO 32008KT 1/4SM FG OVC002 11/11 A2977 RMK AO2 T01050105
PAUT 231335Z AUTO 32003KT 1/4SM FG OVC002 10/10 A2977 RMK AO2 T01040104
PAUT 231315Z AUTO 32006KT 1/4SM FG OVC002 11/11 A2977 RMK AO2 T01050105
PAUT 231255Z AUTO 30008KT 1/4SM FG OVC002 11/11 A2977 RMK AO2 T01070107
PAUT 231235Z AUTO 30008KT M1/4SM FG OVC002 10/10 A2977 RMK AO2 T01030103
PAUT 231215Z AUTO 29006KT M1/4SM FG OVC002 11/11 A2977 RMK AO2 T01050105
PAUT 231155Z AUTO 30006KT 1/4SM FG OVC002 10/10 A2977 RMK AO2 70004 T01000100 10113 20100
PAUT 231135Z AUTO 30007KT 1/4SM FG OVC002 10/10 A2978 RMK AO2 T01020102
PAUT 231115Z AUTO 29005KT 1/4SM FG OVC002 11/11 A2977 RMK AO2 T01070107
PAUT 231055Z AUTO 29003KT 1/2SM FG OVC002 11/11 A2978 RMK AO2 T01050105
PAUT 231035Z AUTO 30004KT 3/4SM BR OVC002 11/11 A2978 RMK AO2 T01050105
PAUT 231015Z AUTO 30006KT 1SM BR BKN002 BKN043 OVC070 11/11 A2977 RMK AO2 T01060106
PAUT 230955Z AUTO 29007KT 1 1/4SM BR SCT002 OVC045 11/11 A2977 RMK AO2 T01080108
PAUT 230935Z AUTO 29006KT 1 3/4SM BR BKN002 OVC045 11/11 A2978 RMK AO2 T01060106
PAUT 230915Z AUTO 30005KT 1 3/4SM BR OVC002 11/11 A2978 RMK AO2 T01060106
PAUT 230855Z AUTO 29006KT 2 1/2SM BR BKN002 OVC048 11/11 A2978 RMK AO2 T01080108 401300105
PAUT 230835Z AUTO 27003KT 2SM BR SCT002 OVC048 11/11 A2978 RMK AO2 T01060106
PAUT 230815Z AUTO 28003KT 2 1/2SM BR SCT002 OVC050 11/11 A2978 RMK AO2 T01070107
PAUT 230755Z AUTO 30003KT 3SM BR SCT002 OVC050 11/11 A2978 RMK AO2 T01080108
PAUT 230735Z AUTO 29003KT 5SM BR SCT002 OVC050 11/11 A2978 RMK AO2 T01110111
PAUT 230715Z AUTO 30005KT 7SM SCT002 OVC050 11/11 A2978 RMK AO2 T01120112
PAUT 230655Z AUTO 29006KT 7SM OVC060 11/11 A2977 RMK AO2 T01120112
PAUT 230635Z AUTO 29007KT 5SM BR OVC060 11/11 A2977 RMK AO2 T01120112
PAUT 230615Z AUTO 28003KT 4SM BR OVC060 11/11 A2977 RMK AO2 T01100110
PAUT 230555Z AUTO 30004KT 5SM BR OVC060 11/11 A2977 RMK AO2 T01120112 10124 20111
PAUT 230535Z AUTO 29005KT 4SM BR OVC050 11/11 A2977 RMK AO2 T01140114
PAUT 230515Z AUTO 30004KT 5SM BR SCT017 SCT023 OVC050 12/12 A2977 RMK AO2 T01150115
PAUT 230455Z AUTO 29005KT 5SM BR BKN019 BKN023 OVC055 12/12 A2978 RMK AO2 T01150115
PAUT 230435Z AUTO 31004KT 4SM BR OVC019 12/12 A2977 RMK AO2 T01150115
PAUT 230415Z AUTO 31004KT 3SM BR SCT002 BKN021 OVC050 12/12 A2977 RMK AO2 T01170117
PAUT 230355Z AUTO 00000KT 1 1/2SM BR BKN002 BKN014 OVC050 12/12 A2976 RMK AO2 VIS 1V2 1/2 T01170117
PAUT 230335Z AUTO 30003KT 1/4SM FG OVC002 12/12 A2976 RMK AO2 T01180118